sensor_id;sensor_type;location;lat;lon;timestamp;temperature;humidity
2212;DHT22;48849;48.758;9.158;2023-07-20T00:10:48;23.60;99.90
2212;DHT22;48849;48.758;9.158;2023-07-20T00:19:59;23.40;99.90
2212;DHT22;48849;48.758;9.158;2023-07-20T00:22:27;23.40;99.90
2212;DHT22;48849;48.758;9.158;2023-07-20T00:24:53;23.40;99.90
2212;DHT22;48849;48.758;9.158;2023-07-20T00:27:22;23.30;99.90
2212;DHT22;48849;48.758;9.158;2023-07-20T00:29:50;23.40;99.90
2212;DHT22;48849;48.758;9.158;2023-07-20T00:32:19;23.40;99.90
2212;DHT22;48849;48.758;9.158;2023-07-20T00:34:49;23.60;99.90
2212;DHT22;48849;48.758;9.158;2023-07-20T00:37:16;23.50;99.90
2212;DHT22;48849;48.758;9.158;2023-07-20T00:39:42;23.40;99.90
2212;DHT22;48849;48.758;9.158;2023-07-20T00:42:09;23.40;99.90
2212;DHT22;48849;48.758;9.158;2023-07-20T00:44:40;23.30;99.90
2212;DHT22;48849;48.758;9.158;2023-07-20T00:47:07;23.30;99.90
2212;DHT22;48849;48.758;9.158;2023-07-20T00:49:34;23.30;99.90
2212;DHT22;48849;48.758;9.158;2023-07-20T00:52:06;23.20;99.90
2212;DHT22;48849;48.758;9.158;2023-07-20T00:54:34;23.20;99.90
2212;DHT22;48849;48.758;9.158;2023-07-20T00:57:07;23.20;99.90
2212;DHT22;48849;48.758;9.158;2023-07-20T00:59:34;23.20;99.90
2212;DHT22;48849;48.758;9.158;2023-07-20T01:02:03;23.20;99.90
2212;DHT22;48849;48.758;9.158;2023-07-20T01:04:30;23.00;99.90
2212;DHT22;48849;48.758;9.158;2023-07-20T01:07:02;23.00;99.90
2212;DHT22;48849;48.758;9.158;2023-07-20T01:09:44;23.00;99.90
2212;DHT22;48849;48.758;9.158;2023-07-20T01:12:18;23.00;99.90
2212;DHT22;48849;48.758;9.158;2023-07-20T01:14:49;22.90;99.90
2212;DHT22;48849;48.758;9.158;2023-07-20T01:17:18;22.80;99.90
2212;DHT22;48849;48.758;9.158;2023-07-20T01:19:46;22.80;99.90
2212;DHT22;48849;48.758;9.158;2023-07-20T01:22:34;23.00;99.90
2212;DHT22;48849;48.758;9.158;2023-07-20T01:25:20;22.80;99.90
2212;DHT22;48849;48.758;9.158;2023-07-20T01:28:12;22.80;99.90
2212;DHT22;48849;48.758;9.158;2023-07-20T01:30:52;22.80;99.90
2212;DHT22;48849;48.758;9.158;2023-07-20T01:33:24;22.80;99.90
2212;DHT22;48849;48.758;9.158;2023-07-20T01:35:54;22.70;99.90
2212;DHT22;48849;48.758;9.158;2023-07-20T01:38:23;22.60;99.90
2212;DHT22;48849;48.758;9.158;2023-07-20T01:40:51;22.60;99.90
2212;DHT22;48849;48.758;9.158;2023-07-20T01:43:18;22.60;99.90
2212;DHT22;48849;48.758;9.158;2023-07-20T01:45:45;22.60;99.90
2212;DHT22;48849;48.758;9.158;2023-07-20T01:48:12;22.50;99.90
2212;DHT22;48849;48.758;9.158;2023-07-20T01:50:40;22.50;99.90
2212;DHT22;48849;48.758;9.158;2023-07-20T01:53:08;22.50;99.90
2212;DHT22;48849;48.758;9.158;2023-07-20T01:55:35;22.50;99.90
2212;DHT22;48849;48.758;9.158;2023-07-20T01:58:02;22.50;99.90
2212;DHT22;48849;48.758;9.158;2023-07-20T02:00:29;22.50;99.90
2212;DHT22;48849;48.758;9.158;2023-07-20T02:02:56;22.50;99.90
2212;DHT22;48849;48.758;9.158;2023-07-20T02:05:23;22.40;99.90
2212;DHT22;48849;48.758;9.158;2023-07-20T02:07:51;22.40;99.90
2212;DHT22;48849;48.758;9.158;2023-07-20T02:10:18;22.40;99.90
2212;DHT22;48849;48.758;9.158;2023-07-20T02:12:44;22.30;99.90
2212;DHT22;48849;48.758;9.158;2023-07-20T02:15:11;22.30;99.90
2212;DHT22;48849;48.758;9.158;2023-07-20T02:17:39;22.20;99.90
2212;DHT22;48849;48.758;9.158;2023-07-20T02:20:07;22.10;99.90
2212;DHT22;48849;48.758;9.158;2023-07-20T02:22:35;22.20;99.90
2212;DHT22;48849;48.758;9.158;2023-07-20T02:25:04;22.10;99.90
2212;DHT22;48849;48.758;9.158;2023-07-20T02:27:31;22.10;99.90
2212;DHT22;48849;48.758;9.158;2023-07-20T02:29:58;22.00;99.90
2212;DHT22;48849;48.758;9.158;2023-07-20T02:32:25;22.00;99.90
2212;DHT22;48849;48.758;9.158;2023-07-20T02:34:52;22.00;99.90
2212;DHT22;48849;48.758;9.158;2023-07-20T02:37:18;22.10;99.90
2212;DHT22;48849;48.758;9.158;2023-07-20T02:39:45;22.20;99.90
2212;DHT22;48849;48.758;9.158;2023-07-20T02:42:13;22.10;99.90
2212;DHT22;48849;48.758;9.158;2023-07-20T02:44:40;22.10;99.90
2212;DHT22;48849;48.758;9.158;2023-07-20T02:47:07;22.10;99.90
2212;DHT22;48849;48.758;9.158;2023-07-20T02:49:34;22.00;99.90
2212;DHT22;48849;48.758;9.158;2023-07-20T02:52:01;22.00;99.90
2212;DHT22;48849;48.758;9.158;2023-07-20T02:54:29;22.00;99.90
2212;DHT22;48849;48.758;9.158;2023-07-20T02:56:56;21.90;99.90
2212;DHT22;48849;48.758;9.158;2023-07-20T02:59:24;21.80;99.90
2212;DHT22;48849;48.758;9.158;2023-07-20T03:01:51;21.90;99.90
2212;DHT22;48849;48.758;9.158;2023-07-20T03:04:19;21.90;99.90
2212;DHT22;48849;48.758;9.158;2023-07-20T03:06:47;22.00;99.90
2212;DHT22;48849;48.758;9.158;2023-07-20T03:09:13;22.00;99.90
2212;DHT22;48849;48.758;9.158;2023-07-20T03:11:41;21.90;99.90
2212;DHT22;48849;48.758;9.158;2023-07-20T03:14:08;21.80;99.90
2212;DHT22;48849;48.758;9.158;2023-07-20T03:16:37;21.80;99.90
2212;DHT22;48849;48.758;9.158;2023-07-20T03:19:04;21.70;99.90
2212;DHT22;48849;48.758;9.158;2023-07-20T03:21:31;21.70;99.90
2212;DHT22;48849;48.758;9.158;2023-07-20T03:23:57;21.80;99.90
2212;DHT22;48849;48.758;9.158;2023-07-20T03:26:24;21.80;99.90
2212;DHT22;48849;48.758;9.158;2023-07-20T03:28:51;21.80;99.90
2212;DHT22;48849;48.758;9.158;2023-07-20T03:31:18;21.80;99.90
2212;DHT22;48849;48.758;9.158;2023-07-20T03:33:46;21.70;99.90
2212;DHT22;48849;48.758;9.158;2023-07-20T03:36:12;21.70;99.90
2212;DHT22;48849;48.758;9.158;2023-07-20T03:38:39;21.70;99.90
2212;DHT22;48849;48.758;9.158;2023-07-20T03:41:06;21.60;99.90
2212;DHT22;48849;48.758;9.158;2023-07-20T03:43:33;21.50;99.90
2212;DHT22;48849;48.758;9.158;2023-07-20T03:45:59;21.50;99.90
2212;DHT22;48849;48.758;9.158;2023-07-20T03:48:26;21.50;99.90
2212;DHT22;48849;48.758;9.158;2023-07-20T03:50:55;21.40;99.90
2212;DHT22;48849;48.758;9.158;2023-07-20T03:53:22;21.40;99.90
2212;DHT22;48849;48.758;9.158;2023-07-20T03:55:51;21.30;99.90
2212;DHT22;48849;48.758;9.158;2023-07-20T03:58:18;21.40;99.90
2212;DHT22;48849;48.758;9.158;2023-07-20T04:00:46;21.50;99.90
2212;DHT22;48849;48.758;9.158;2023-07-20T04:03:13;21.50;99.90
2212;DHT22;48849;48.758;9.158;2023-07-20T04:05:40;21.50;99.90
2212;DHT22;48849;48.758;9.158;2023-07-20T04:08:09;21.40;99.90
2212;DHT22;48849;48.758;9.158;2023-07-20T04:10:37;21.50;99.90
2212;DHT22;48849;48.758;9.158;2023-07-20T04:13:03;21.50;99.90
2212;DHT22;48849;48.758;9.158;2023-07-20T04:15:30;21.50;99.90
2212;DHT22;48849;48.758;9.158;2023-07-20T04:17:57;21.50;99.90
2212;DHT22;48849;48.758;9.158;2023-07-20T04:20:24;21.40;99.90
2212;DHT22;48849;48.758;9.158;2023-07-20T04:22:51;21.40;99.90
2212;DHT22;48849;48.758;9.158;2023-07-20T04:25:19;21.40;99.90
2212;DHT22;48849;48.758;9.158;2023-07-20T04:27:46;21.30;99.90
2212;DHT22;48849;48.758;9.158;2023-07-20T04:30:13;21.40;99.90
2212;DHT22;48849;48.758;9.158;2023-07-20T04:32:41;21.50;99.90
2212;DHT22;48849;48.758;9.158;2023-07-20T04:35:09;21.60;99.90
2212;DHT22;48849;48.758;9.158;2023-07-20T04:37:36;21.60;99.90
2212;DHT22;48849;48.758;9.158;2023-07-20T04:40:04;21.50;99.90
2212;DHT22;48849;48.758;9.158;2023-07-20T04:42:33;21.50;99.90
2212;DHT22;48849;48.758;9.158;2023-07-20T04:45:00;21.50;99.90
2212;DHT22;48849;48.758;9.158;2023-07-20T04:47:27;21.60;99.90
2212;DHT22;48849;48.758;9.158;2023-07-20T04:49:54;21.60;99.90
2212;DHT22;48849;48.758;9.158;2023-07-20T04:52:20;21.50;99.90
2212;DHT22;48849;48.758;9.158;2023-07-20T04:54:48;21.60;99.90
2212;DHT22;48849;48.758;9.158;2023-07-20T04:57:15;21.60;99.90
2212;DHT22;48849;48.758;9.158;2023-07-20T04:59:43;21.70;99.90
2212;DHT22;48849;48.758;9.158;2023-07-20T05:02:10;21.70;99.90
2212;DHT22;48849;48.758;9.158;2023-07-20T05:04:37;21.80;99.90
2212;DHT22;48849;48.758;9.158;2023-07-20T05:07:04;21.80;99.90
2212;DHT22;48849;48.758;9.158;2023-07-20T05:09:31;21.80;99.90
2212;DHT22;48849;48.758;9.158;2023-07-20T05:11:58;21.90;99.90
2212;DHT22;48849;48.758;9.158;2023-07-20T05:14:25;22.00;99.90
2212;DHT22;48849;48.758;9.158;2023-07-20T05:16:53;21.90;99.90
2212;DHT22;48849;48.758;9.158;2023-07-20T05:19:20;21.90;99.90
2212;DHT22;48849;48.758;9.158;2023-07-20T05:21:47;21.90;99.90
2212;DHT22;48849;48.758;9.158;2023-07-20T05:24:14;22.00;99.90
2212;DHT22;48849;48.758;9.158;2023-07-20T05:26:41;22.00;99.90
2212;DHT22;48849;48.758;9.158;2023-07-20T05:29:08;22.00;99.90
2212;DHT22;48849;48.758;9.158;2023-07-20T05:31:35;22.10;99.90
2212;DHT22;48849;48.758;9.158;2023-07-20T05:34:03;22.10;99.90
2212;DHT22;48849;48.758;9.158;2023-07-20T05:36:30;22.10;99.90
2212;DHT22;48849;48.758;9.158;2023-07-20T05:38:57;22.10;99.90
2212;DHT22;48849;48.758;9.158;2023-07-20T05:41:24;22.10;99.90
2212;DHT22;48849;48.758;9.158;2023-07-20T05:43:51;22.20;99.90
2212;DHT22;48849;48.758;9.158;2023-07-20T05:46:18;22.20;99.90
2212;DHT22;48849;48.758;9.158;2023-07-20T05:48:45;22.20;99.90
2212;DHT22;48849;48.758;9.158;2023-07-20T05:51:13;22.20;99.90
2212;DHT22;48849;48.758;9.158;2023-07-20T05:53:40;22.30;99.90
2212;DHT22;48849;48.758;9.158;2023-07-20T05:56:07;22.20;99.90
2212;DHT22;48849;48.758;9.158;2023-07-20T05:58:35;22.30;99.90
2212;DHT22;48849;48.758;9.158;2023-07-20T06:01:03;22.30;99.90
2212;DHT22;48849;48.758;9.158;2023-07-20T06:03:31;22.30;99.90
2212;DHT22;48849;48.758;9.158;2023-07-20T06:05:59;22.30;99.90
2212;DHT22;48849;48.758;9.158;2023-07-20T06:08:28;22.30;99.90
2212;DHT22;48849;48.758;9.158;2023-07-20T06:10:55;22.40;99.90
2212;DHT22;48849;48.758;9.158;2023-07-20T06:13:22;22.40;99.90
2212;DHT22;48849;48.758;9.158;2023-07-20T06:15:49;22.40;99.90
2212;DHT22;48849;48.758;9.158;2023-07-20T06:18:16;22.60;99.90
2212;DHT22;48849;48.758;9.158;2023-07-20T06:20:48;22.50;99.90
2212;DHT22;48849;48.758;9.158;2023-07-20T06:23:15;22.60;99.90
2212;DHT22;48849;48.758;9.158;2023-07-20T06:25:44;22.60;99.90
2212;DHT22;48849;48.758;9.158;2023-07-20T06:28:10;22.70;99.90
2212;DHT22;48849;48.758;9.158;2023-07-20T06:30:37;22.70;99.90
2212;DHT22;48849;48.758;9.158;2023-07-20T06:33:04;22.70;99.90
2212;DHT22;48849;48.758;9.158;2023-07-20T06:35:31;22.60;99.90
2212;DHT22;48849;48.758;9.158;2023-07-20T06:37:58;22.60;99.90
2212;DHT22;48849;48.758;9.158;2023-07-20T06:40:26;22.70;99.90
2212;DHT22;48849;48.758;9.158;2023-07-20T06:42:54;22.70;99.90
2212;DHT22;48849;48.758;9.158;2023-07-20T06:45:20;22.90;99.90
2212;DHT22;48849;48.758;9.158;2023-07-20T06:47:47;22.80;99.90
2212;DHT22;48849;48.758;9.158;2023-07-20T06:50:14;22.80;99.90
2212;DHT22;48849;48.758;9.158;2023-07-20T06:52:41;22.70;99.90
2212;DHT22;48849;48.758;9.158;2023-07-20T06:55:08;22.70;99.90
2212;DHT22;48849;48.758;9.158;2023-07-20T06:57:35;22.60;99.90
2212;DHT22;48849;48.758;9.158;2023-07-20T07:00:05;22.70;99.90
2212;DHT22;48849;48.758;9.158;2023-07-20T07:02:32;22.70;99.90
2212;DHT22;48849;48.758;9.158;2023-07-20T07:05:00;22.70;99.90
2212;DHT22;48849;48.758;9.158;2023-07-20T07:07:27;22.80;99.90
2212;DHT22;48849;48.758;9.158;2023-07-20T07:09:54;22.80;99.90
2212;DHT22;48849;48.758;9.158;2023-07-20T07:12:21;22.90;99.90
2212;DHT22;48849;48.758;9.158;2023-07-20T07:14:48;22.80;99.90
2212;DHT22;48849;48.758;9.158;2023-07-20T07:17:16;22.90;99.90
2212;DHT22;48849;48.758;9.158;2023-07-20T07:19:43;22.80;99.90
2212;DHT22;48849;48.758;9.158;2023-07-20T07:22:10;22.80;99.90
2212;DHT22;48849;48.758;9.158;2023-07-20T07:24:38;22.80;99.90
2212;DHT22;48849;48.758;9.158;2023-07-20T07:27:08;22.80;99.90
2212;DHT22;48849;48.758;9.158;2023-07-20T07:29:35;22.80;99.90
2212;DHT22;48849;48.758;9.158;2023-07-20T07:32:02;22.80;99.90
2212;DHT22;48849;48.758;9.158;2023-07-20T07:34:30;22.80;99.90
2212;DHT22;48849;48.758;9.158;2023-07-20T07:36:59;22.90;99.90
2212;DHT22;48849;48.758;9.158;2023-07-20T07:39:26;22.90;99.90
2212;DHT22;48849;48.758;9.158;2023-07-20T07:41:55;22.90;99.90
2212;DHT22;48849;48.758;9.158;2023-07-20T07:44:22;23.00;99.90
2212;DHT22;48849;48.758;9.158;2023-07-20T07:46:49;23.00;99.90
2212;DHT22;48849;48.758;9.158;2023-07-20T07:49:16;23.00;99.90
2212;DHT22;48849;48.758;9.158;2023-07-20T07:51:45;23.00;99.90
2212;DHT22;48849;48.758;9.158;2023-07-20T07:54:12;23.10;99.90
2212;DHT22;48849;48.758;9.158;2023-07-20T07:56:39;23.10;99.90
2212;DHT22;48849;48.758;9.158;2023-07-20T07:59:06;23.10;99.90
2212;DHT22;48849;48.758;9.158;2023-07-20T08:01:33;23.10;99.90
2212;DHT22;48849;48.758;9.158;2023-07-20T08:04:00;23.20;99.90
2212;DHT22;48849;48.758;9.158;2023-07-20T08:06:27;23.20;99.90
2212;DHT22;48849;48.758;9.158;2023-07-20T08:08:55;23.10;99.90
2212;DHT22;48849;48.758;9.158;2023-07-20T08:11:24;23.10;99.90
2212;DHT22;48849;48.758;9.158;2023-07-20T08:13:51;23.10;99.90
2212;DHT22;48849;48.758;9.158;2023-07-20T08:16:17;23.20;99.90
2212;DHT22;48849;48.758;9.158;2023-07-20T08:18:45;23.20;99.90
2212;DHT22;48849;48.758;9.158;2023-07-20T08:21:13;23.30;99.90
2212;DHT22;48849;48.758;9.158;2023-07-20T08:23:40;23.20;99.90
2212;DHT22;48849;48.758;9.158;2023-07-20T08:26:08;23.30;99.90
2212;DHT22;48849;48.758;9.158;2023-07-20T08:28:35;23.40;99.90
2212;DHT22;48849;48.758;9.158;2023-07-20T08:31:05;23.40;99.90
2212;DHT22;48849;48.758;9.158;2023-07-20T08:33:32;23.30;99.90
2212;DHT22;48849;48.758;9.158;2023-07-20T08:36:00;23.40;99.90
2212;DHT22;48849;48.758;9.158;2023-07-20T08:38:29;23.50;99.90
2212;DHT22;48849;48.758;9.158;2023-07-20T08:40:56;23.50;99.90
2212;DHT22;48849;48.758;9.158;2023-07-20T08:43:27;23.50;99.90
2212;DHT22;48849;48.758;9.158;2023-07-20T08:45:55;23.60;99.90
2212;DHT22;48849;48.758;9.158;2023-07-20T08:48:22;23.60;99.90
2212;DHT22;48849;48.758;9.158;2023-07-20T08:50:53;23.70;99.90
2212;DHT22;48849;48.758;9.158;2023-07-20T08:53:21;23.70;99.90
2212;DHT22;48849;48.758;9.158;2023-07-20T08:55:50;23.70;99.90
2212;DHT22;48849;48.758;9.158;2023-07-20T08:58:18;23.70;99.90
2212;DHT22;48849;48.758;9.158;2023-07-20T09:00:47;23.60;99.90
2212;DHT22;48849;48.758;9.158;2023-07-20T09:03:16;23.60;99.90
2212;DHT22;48849;48.758;9.158;2023-07-20T09:05:42;23.60;99.90
2212;DHT22;48849;48.758;9.158;2023-07-20T09:08:10;23.70;99.90
2212;DHT22;48849;48.758;9.158;2023-07-20T09:10:37;23.70;99.90
2212;DHT22;48849;48.758;9.158;2023-07-20T09:13:04;23.70;99.90
2212;DHT22;48849;48.758;9.158;2023-07-20T09:15:31;23.80;99.90
2212;DHT22;48849;48.758;9.158;2023-07-20T09:18:01;23.90;99.90
2212;DHT22;48849;48.758;9.158;2023-07-20T09:20:31;23.90;99.90
2212;DHT22;48849;48.758;9.158;2023-07-20T09:22:58;23.90;99.90
2212;DHT22;48849;48.758;9.158;2023-07-20T09:25:27;23.90;99.90
2212;DHT22;48849;48.758;9.158;2023-07-20T09:27:54;24.00;99.90
2212;DHT22;48849;48.758;9.158;2023-07-20T09:30:25;24.00;99.90
2212;DHT22;48849;48.758;9.158;2023-07-20T09:32:52;24.10;99.90
2212;DHT22;48849;48.758;9.158;2023-07-20T09:35:23;24.10;99.90
2212;DHT22;48849;48.758;9.158;2023-07-20T09:37:58;24.10;99.90
2212;DHT22;48849;48.758;9.158;2023-07-20T09:40:26;24.20;99.90
2212;DHT22;48849;48.758;9.158;2023-07-20T09:42:54;24.20;99.90
2212;DHT22;48849;48.758;9.158;2023-07-20T09:45:29;24.20;99.90
2212;DHT22;48849;48.758;9.158;2023-07-20T09:48:03;24.20;99.90
2212;DHT22;48849;48.758;9.158;2023-07-20T09:50:33;24.20;99.90
2212;DHT22;48849;48.758;9.158;2023-07-20T09:53:01;24.20;99.90
2212;DHT22;48849;48.758;9.158;2023-07-20T09:55:29;24.20;99.90
2212;DHT22;48849;48.758;9.158;2023-07-20T09:57:56;24.20;99.90
2212;DHT22;48849;48.758;9.158;2023-07-20T10:00:23;24.30;99.90
2212;DHT22;48849;48.758;9.158;2023-07-20T10:02:55;24.30;99.90
2212;DHT22;48849;48.758;9.158;2023-07-20T10:05:24;24.30;99.90
2212;DHT22;48849;48.758;9.158;2023-07-20T10:07:55;24.40;99.90
2212;DHT22;48849;48.758;9.158;2023-07-20T10:10:23;24.50;99.90
2212;DHT22;48849;48.758;9.158;2023-07-20T10:12:50;24.50;99.90
2212;DHT22;48849;48.758;9.158;2023-07-20T10:15:22;24.50;99.90
2212;DHT22;48849;48.758;9.158;2023-07-20T10:18:03;24.50;99.90
2212;DHT22;48849;48.758;9.158;2023-07-20T10:20:32;24.50;99.90
2212;DHT22;48849;48.758;9.158;2023-07-20T10:23:03;24.40;99.90
2212;DHT22;48849;48.758;9.158;2023-07-20T10:25:31;24.40;99.90
2212;DHT22;48849;48.758;9.158;2023-07-20T10:27:58;24.40;99.90
2212;DHT22;48849;48.758;9.158;2023-07-20T10:30:26;24.40;99.90
2212;DHT22;48849;48.758;9.158;2023-07-20T10:32:53;24.40;99.90
2212;DHT22;48849;48.758;9.158;2023-07-20T10:35:20;24.50;99.90
2212;DHT22;48849;48.758;9.158;2023-07-20T10:37:54;24.50;99.90
2212;DHT22;48849;48.758;9.158;2023-07-20T10:40:28;24.60;99.90
2212;DHT22;48849;48.758;9.158;2023-07-20T10:43:01;24.70;99.90
2212;DHT22;48849;48.758;9.158;2023-07-20T10:45:42;24.80;99.90
2212;DHT22;48849;48.758;9.158;2023-07-20T10:48:15;24.80;99.90
2212;DHT22;48849;48.758;9.158;2023-07-20T10:50:43;24.80;99.90
2212;DHT22;48849;48.758;9.158;2023-07-20T10:53:11;24.80;99.90
2212;DHT22;48849;48.758;9.158;2023-07-20T10:55:44;24.80;99.90
2212;DHT22;48849;48.758;9.158;2023-07-20T10:58:12;24.80;99.90
2212;DHT22;48849;48.758;9.158;2023-07-20T11:00:57;24.80;99.90
2212;DHT22;48849;48.758;9.158;2023-07-20T11:03:29;24.80;99.90
2212;DHT22;48849;48.758;9.158;2023-07-20T11:05:57;24.90;99.90
2212;DHT22;48849;48.758;9.158;2023-07-20T11:08:38;25.00;99.90
2212;DHT22;48849;48.758;9.158;2023-07-20T11:11:24;25.10;99.90
2212;DHT22;48849;48.758;9.158;2023-07-20T11:13:56;25.20;99.90
2212;DHT22;48849;48.758;9.158;2023-07-20T11:16:40;25.30;99.90
2212;DHT22;48849;48.758;9.158;2023-07-20T11:19:16;25.30;99.90
2212;DHT22;48849;48.758;9.158;2023-07-20T11:21:44;25.30;99.90
2212;DHT22;48849;48.758;9.158;2023-07-20T11:24:12;25.30;99.90
2212;DHT22;48849;48.758;9.158;2023-07-20T11:26:47;25.50;99.90
2212;DHT22;48849;48.758;9.158;2023-07-20T11:29:16;25.60;99.90
2212;DHT22;48849;48.758;9.158;2023-07-20T11:31:44;25.60;99.90
2212;DHT22;48849;48.758;9.158;2023-07-20T11:34:15;25.60;99.90
2212;DHT22;48849;48.758;9.158;2023-07-20T11:36:43;25.70;99.90
2212;DHT22;48849;48.758;9.158;2023-07-20T11:39:13;25.70;99.90
2212;DHT22;48849;48.758;9.158;2023-07-20T11:41:46;25.80;99.90
2212;DHT22;48849;48.758;9.158;2023-07-20T11:44:15;25.90;99.90
2212;DHT22;48849;48.758;9.158;2023-07-20T11:46:44;25.90;99.90
2212;DHT22;48849;48.758;9.158;2023-07-20T11:49:11;25.80;99.90
2212;DHT22;48849;48.758;9.158;2023-07-20T11:51:40;25.90;99.90
2212;DHT22;48849;48.758;9.158;2023-07-20T11:54:07;26.00;99.90
2212;DHT22;48849;48.758;9.158;2023-07-20T11:56:35;26.20;99.90
2212;DHT22;48849;48.758;9.158;2023-07-20T11:59:03;26.30;99.90
2212;DHT22;48849;48.758;9.158;2023-07-20T12:01:30;26.30;99.90
2212;DHT22;48849;48.758;9.158;2023-07-20T12:03:59;26.40;99.90
2212;DHT22;48849;48.758;9.158;2023-07-20T12:06:28;26.50;99.70
2212;DHT22;48849;48.758;9.158;2023-07-20T12:08:57;26.60;99.90
2212;DHT22;48849;48.758;9.158;2023-07-20T12:11:34;26.60;99.70
2212;DHT22;48849;48.758;9.158;2023-07-20T12:14:03;26.70;99.10
2212;DHT22;48849;48.758;9.158;2023-07-20T12:16:33;26.90;98.20
2212;DHT22;48849;48.758;9.158;2023-07-20T12:19:01;27.00;98.20
2212;DHT22;48849;48.758;9.158;2023-07-20T12:21:31;27.00;98.10
2212;DHT22;48849;48.758;9.158;2023-07-20T12:23:58;26.90;98.10
2212;DHT22;48849;48.758;9.158;2023-07-20T12:26:25;26.90;98.30
2212;DHT22;48849;48.758;9.158;2023-07-20T12:28:52;27.00;98.30
2212;DHT22;48849;48.758;9.158;2023-07-20T12:31:21;27.10;98.10
2212;DHT22;48849;48.758;9.158;2023-07-20T12:33:49;27.20;97.90
2212;DHT22;48849;48.758;9.158;2023-07-20T12:36:17;27.40;97.60
2212;DHT22;48849;48.758;9.158;2023-07-20T12:38:45;27.40;97.60
2212;DHT22;48849;48.758;9.158;2023-07-20T12:41:13;27.50;97.10
2212;DHT22;48849;48.758;9.158;2023-07-20T12:43:40;27.60;96.90
2212;DHT22;48849;48.758;9.158;2023-07-20T12:46:07;27.70;97.00
2212;DHT22;48849;48.758;9.158;2023-07-20T12:48:36;27.80;96.90
2212;DHT22;48849;48.758;9.158;2023-07-20T12:51:03;27.90;97.20
2212;DHT22;48849;48.758;9.158;2023-07-20T12:53:31;28.10;97.40
2212;DHT22;48849;48.758;9.158;2023-07-20T12:56:00;28.10;96.50
2212;DHT22;48849;48.758;9.158;2023-07-20T12:58:26;28.20;96.80
2212;DHT22;48849;48.758;9.158;2023-07-20T13:00:53;28.20;96.80
2212;DHT22;48849;48.758;9.158;2023-07-20T13:03:20;28.40;97.10
2212;DHT22;48849;48.758;9.158;2023-07-20T13:05:51;28.60;97.50
2212;DHT22;48849;48.758;9.158;2023-07-20T13:08:18;28.80;97.00
2212;DHT22;48849;48.758;9.158;2023-07-20T13:10:46;29.10;97.60
2212;DHT22;48849;48.758;9.158;2023-07-20T13:13:14;29.20;98.00
2212;DHT22;48849;48.758;9.158;2023-07-20T13:15:42;29.50;95.50
2212;DHT22;48849;48.758;9.158;2023-07-20T13:18:09;29.70;95.30
2212;DHT22;48849;48.758;9.158;2023-07-20T13:20:35;29.80;94.70
2212;DHT22;48849;48.758;9.158;2023-07-20T13:23:04;30.00;94.80
2212;DHT22;48849;48.758;9.158;2023-07-20T13:25:30;30.10;95.50
2212;DHT22;48849;48.758;9.158;2023-07-20T13:27:57;30.30;94.30
2212;DHT22;48849;48.758;9.158;2023-07-20T13:30:24;30.20;93.60
2212;DHT22;48849;48.758;9.158;2023-07-20T13:32:51;30.10;93.80
2212;DHT22;48849;48.758;9.158;2023-07-20T13:35:18;29.90;93.80
2212;DHT22;48849;48.758;9.158;2023-07-20T13:37:45;29.80;94.50
2212;DHT22;48849;48.758;9.158;2023-07-20T13:40:15;29.60;93.80
2212;DHT22;48849;48.758;9.158;2023-07-20T13:42:44;29.50;94.30
2212;DHT22;48849;48.758;9.158;2023-07-20T13:45:10;29.30;94.50
2212;DHT22;48849;48.758;9.158;2023-07-20T13:47:37;29.20;95.60
2212;DHT22;48849;48.758;9.158;2023-07-20T13:50:04;29.00;97.00
2212;DHT22;48849;48.758;9.158;2023-07-20T13:52:31;29.00;95.70
2212;DHT22;48849;48.758;9.158;2023-07-20T13:54:58;28.90;95.30
2212;DHT22;48849;48.758;9.158;2023-07-20T13:57:27;28.90;95.30
2212;DHT22;48849;48.758;9.158;2023-07-20T13:59:54;29.20;96.40
2212;DHT22;48849;48.758;9.158;2023-07-20T14:02:20;29.80;97.70
2212;DHT22;48849;48.758;9.158;2023-07-20T14:04:48;30.90;96.90
2212;DHT22;48849;48.758;9.158;2023-07-20T14:07:15;32.30;95.00
2212;DHT22;48849;48.758;9.158;2023-07-20T14:09:41;33.50;94.70
2212;DHT22;48849;48.758;9.158;2023-07-20T14:12:09;34.10;91.80
2212;DHT22;48849;48.758;9.158;2023-07-20T14:14:38;33.70;93.00
2212;DHT22;48849;48.758;9.158;2023-07-20T14:17:06;32.80;92.10
2212;DHT22;48849;48.758;9.158;2023-07-20T14:19:33;32.00;91.60
2212;DHT22;48849;48.758;9.158;2023-07-20T14:21:59;31.40;93.00
2212;DHT22;48849;48.758;9.158;2023-07-20T14:24:27;30.80;92.50
2212;DHT22;48849;48.758;9.158;2023-07-20T14:26:53;30.20;94.10
2212;DHT22;48849;48.758;9.158;2023-07-20T14:29:21;29.70;95.90
2212;DHT22;48849;48.758;9.158;2023-07-20T14:31:49;29.30;93.70
2212;DHT22;48849;48.758;9.158;2023-07-20T14:34:17;29.00;93.40
2212;DHT22;48849;48.758;9.158;2023-07-20T14:36:44;28.80;95.00
2212;DHT22;48849;48.758;9.158;2023-07-20T14:39:11;28.50;93.60
2212;DHT22;48849;48.758;9.158;2023-07-20T14:41:37;28.30;93.00
2212;DHT22;48849;48.758;9.158;2023-07-20T14:44:04;28.10;93.80
2212;DHT22;48849;48.758;9.158;2023-07-20T14:46:31;28.00;94.10
2212;DHT22;48849;48.758;9.158;2023-07-20T14:48:59;27.80;93.50
2212;DHT22;48849;48.758;9.158;2023-07-20T14:51:27;27.70;93.50
2212;DHT22;48849;48.758;9.158;2023-07-20T14:53:57;27.60;93.50
2212;DHT22;48849;48.758;9.158;2023-07-20T14:56:23;27.40;93.00
2212;DHT22;48849;48.758;9.158;2023-07-20T14:58:50;27.40;93.40
2212;DHT22;48849;48.758;9.158;2023-07-20T15:01:17;27.30;95.20
2212;DHT22;48849;48.758;9.158;2023-07-20T15:03:44;27.30;95.70
2212;DHT22;48849;48.758;9.158;2023-07-20T15:06:12;27.20;95.60
2212;DHT22;48849;48.758;9.158;2023-07-20T15:08:39;27.10;94.20
2212;DHT22;48849;48.758;9.158;2023-07-20T15:11:05;27.10;96.20
2212;DHT22;48849;48.758;9.158;2023-07-20T15:13:32;27.00;96.00
2212;DHT22;48849;48.758;9.158;2023-07-20T15:15:59;27.00;96.10
2212;DHT22;48849;48.758;9.158;2023-07-20T15:18:25;27.00;99.90
2212;DHT22;48849;48.758;9.158;2023-07-20T15:20:52;26.90;96.30
2212;DHT22;48849;48.758;9.158;2023-07-20T15:23:21;26.80;96.00
2212;DHT22;48849;48.758;9.158;2023-07-20T15:25:47;26.80;95.40
2212;DHT22;48849;48.758;9.158;2023-07-20T15:28:14;26.80;95.10
2212;DHT22;48849;48.758;9.158;2023-07-20T15:30:41;26.80;97.60
2212;DHT22;48849;48.758;9.158;2023-07-20T15:33:07;26.80;96.40
2212;DHT22;48849;48.758;9.158;2023-07-20T15:35:34;26.70;95.10
2212;DHT22;48849;48.758;9.158;2023-07-20T15:38:01;26.70;95.10
2212;DHT22;48849;48.758;9.158;2023-07-20T15:40:29;26.70;94.10
2212;DHT22;48849;48.758;9.158;2023-07-20T15:42:55;26.70;94.00
2212;DHT22;48849;48.758;9.158;2023-07-20T15:45:22;26.70;94.30
2212;DHT22;48849;48.758;9.158;2023-07-20T15:47:49;26.70;94.90
2212;DHT22;48849;48.758;9.158;2023-07-20T15:50:15;26.70;95.60
2212;DHT22;48849;48.758;9.158;2023-07-20T15:52:42;26.60;96.70
2212;DHT22;48849;48.758;9.158;2023-07-20T15:55:10;26.60;98.20
2212;DHT22;48849;48.758;9.158;2023-07-20T15:57:39;26.60;99.90
2212;DHT22;48849;48.758;9.158;2023-07-20T16:00:06;26.50;99.90
2212;DHT22;48849;48.758;9.158;2023-07-20T16:02:35;26.50;99.90
2212;DHT22;48849;48.758;9.158;2023-07-20T16:05:02;26.50;96.90
2212;DHT22;48849;48.758;9.158;2023-07-20T16:07:29;26.40;96.40